Time;durP1;ratioP1;P1;durP2;ratioP2;P2;SDS_P1;SDS_P2;PMS_P1;PMS_P2;Temp;Humidity;BMP_temperature;BMP_pressure;BME280_temperature;BME280_humidity;BME280_pressure;Samples;Min_cycle;Max_cycle;Signal;HPM_P1;HPM_P2
2023/05/19 00:01:12;;;;;;;;;;;20.70;42.50;;;;;;5092513;28;19944;-62
2023/05/19 00:03:41;;;;;;;;;;;20.70;42.60;;;;;;5087080;28;19966;-63
2023/05/19 00:06:08;;;;;;;;;;;20.70;42.50;;;;;;5074130;28;19931;-63
2023/05/19 00:08:35;;;;;;;;;;;20.70;42.50;;;;;;5076308;28;19928;-63
2023/05/19 00:11:02;;;;;;;;;;;20.70;42.60;;;;;;5077251;28;19920;-63
2023/05/19 00:13:30;;;;;;;;;;;20.70;42.60;;;;;;5076922;28;19924;-63
2023/05/19 00:16:03;;;;;;;;;;;20.70;42.50;;;;;;5095777;28;19965;-63
2023/05/19 00:18:29;;;;;;;;;;;20.70;42.50;;;;;;5094155;28;20345;-63
2023/05/19 00:20:56;;;;;;;;;;;20.70;42.50;;;;;;5095970;28;19920;-63
2023/05/19 00:23:23;;;;;;;;;;;20.70;42.50;;;;;;5091205;28;19920;-63
2023/05/19 00:25:51;;;;;;;;;;;20.70;42.50;;;;;;5111425;28;19927;-62
2023/05/19 00:28:17;;;;;;;;;;;20.70;42.60;;;;;;5094171;28;19927;-63
2023/05/19 00:30:46;;;;;;;;;;;20.70;42.50;;;;;;5093974;28;19950;-63
2023/05/19 00:33:14;;;;;;;;;;;20.70;42.60;;;;;;5077220;28;19924;-63
2023/05/19 00:35:41;;;;;;;;;;;20.70;42.50;;;;;;5083777;28;19974;-63
2023/05/19 00:38:08;;;;;;;;;;;20.70;42.60;;;;;;5094359;28;19928;-63
2023/05/19 00:40:34;;;;;;;;;;;20.70;42.50;;;;;;5079391;28;20066;-63
2023/05/19 00:43:04;;;;;;;;;;;20.70;42.50;;;;;;5093435;28;19935;-63
2023/05/19 00:45:31;;;;;;;;;;;20.70;42.50;;;;;;5075444;28;19920;-63
2023/05/19 00:47:59;;;;;;;;;;;20.70;42.60;;;;;;5076788;28;19920;-62
2023/05/19 00:50:26;;;;;;;;;;;20.70;42.50;;;;;;5076737;28;19973;-63
2023/05/19 00:52:52;;;;;;;;;;;20.70;42.60;;;;;;5088221;28;19919;-63
2023/05/19 00:55:19;;;;;;;;;;;20.70;42.50;;;;;;5075772;28;19966;-63
2023/05/19 00:57:46;;;;;;;;;;;20.70;42.50;;;;;;5075985;28;19924;-61
2023/05/19 01:00:14;;;;;;;;;;;20.70;42.50;;;;;;5085068;28;19932;-63
2023/05/19 01:02:42;;;;;;;;;;;20.70;42.60;;;;;;5072006;28;19920;-62
2023/05/19 01:05:12;;;;;;;;;;;20.70;42.50;;;;;;5094998;28;19977;-63
2023/05/19 01:07:41;;;;;;;;;;;20.70;42.50;;;;;;5092902;28;19920;-63
2023/05/19 01:10:07;;;;;;;;;;;20.70;42.50;;;;;;5080195;28;19920;-62
2023/05/19 01:12:34;;;;;;;;;;;20.70;42.50;;;;;;5075586;28;19927;-63
2023/05/19 01:15:01;;;;;;;;;;;20.70;42.50;;;;;;5094794;28;19962;-63
2023/05/19 01:17:33;;;;;;;;;;;20.70;42.60;;;;;;5092991;28;20300;-63
2023/05/19 01:20:05;;;;;;;;;;;20.70;42.50;;;;;;5109232;28;19926;-63
2023/05/19 01:22:56;;;;;;;;;;;20.70;43.20;;;;;;5113443;28;20374;-63
2023/05/19 01:25:32;;;;;;;;;;;20.70;42.50;;;;;;5073002;28;19920;-63
2023/05/19 01:28:05;;;;;;;;;;;20.70;42.50;;;;;;5092967;28;19946;-63
2023/05/19 01:30:45;;;;;;;;;;;20.70;42.60;;;;;;5100033;28;19920;-63
2023/05/19 01:33:13;;;;;;;;;;;20.70;42.60;;;;;;5092444;28;19920;-63
2023/05/19 01:35:41;;;;;;;;;;;20.70;42.60;;;;;;5090121;28;19920;-63
2023/05/19 01:38:08;;;;;;;;;;;20.70;42.60;;;;;;5075390;28;19920;-63
2023/05/19 01:40:34;;;;;;;;;;;20.70;42.60;;;;;;5080581;28;19939;-63
2023/05/19 01:43:01;;;;;;;;;;;20.70;43.20;;;;;;5075684;28;19927;-63
2023/05/19 01:45:28;;;;;;;;;;;20.70;42.60;;;;;;5074514;28;19931;-63
2023/05/19 01:47:57;;;;;;;;;;;20.70;42.50;;;;;;5091893;28;19920;-62
2023/05/19 01:50:24;;;;;;;;;;;20.70;42.60;;;;;;5081995;28;19920;-63
2023/05/19 01:52:52;;;;;;;;;;;20.70;42.50;;;;;;5085668;28;19920;-63
2023/05/19 01:55:22;;;;;;;;;;;20.70;42.50;;;;;;5093673;28;19924;-63
2023/05/19 01:57:51;;;;;;;;;;;20.70;42.60;;;;;;5083155;28;20018;-63
2023/05/19 02:00:19;;;;;;;;;;;20.70;42.50;;;;;;5092683;28;19920;-63
2023/05/19 02:02:49;;;;;;;;;;;20.70;42.50;;;;;;5078647;28;19927;-63
2023/05/19 02:05:18;;;;;;;;;;;20.70;42.60;;;;;;5090245;28;20374;-62
2023/05/19 02:07:50;;;;;;;;;;;20.70;42.60;;;;;;5073695;28;19985;-63
2023/05/19 02:10:19;;;;;;;;;;;20.70;42.50;;;;;;5092081;28;19921;-62
2023/05/19 02:12:46;;;;;;;;;;;20.70;42.50;;;;;;5087398;28;19920;-62
2023/05/19 02:15:14;;;;;;;;;;;20.70;42.60;;;;;;5093531;28;19920;-63
2023/05/19 02:17:41;;;;;;;;;;;20.70;42.50;;;;;;5066449;28;19920;-63
2023/05/19 02:20:09;;;;;;;;;;;20.70;42.60;;;;;;5092020;28;19927;-62
2023/05/19 02:22:37;;;;;;;;;;;20.70;42.60;;;;;;5067062;28;20007;-61
2023/05/19 02:25:04;;;;;;;;;;;20.70;42.60;;;;;;5093642;28;19965;-61
2023/05/19 02:27:33;;;;;;;;;;;20.70;42.50;;;;;;5080532;28;19920;-62
2023/05/19 02:30:02;;;;;;;;;;;20.70;42.60;;;;;;5093209;28;19946;-63
2023/05/19 02:32:29;;;;;;;;;;;20.70;42.50;;;;;;5080198;28;19967;-63
2023/05/19 02:34:56;;;;;;;;;;;20.70;42.50;;;;;;5097742;28;19920;-62
2023/05/19 02:37:24;;;;;;;;;;;20.70;42.50;;;;;;5079028;28;19920;-63
2023/05/19 02:39:52;;;;;;;;;;;20.70;42.50;;;;;;5092099;28;20288;-62
2023/05/19 02:42:19;;;;;;;;;;;20.70;42.60;;;;;;5076489;28;19973;-62
2023/05/19 02:44:46;;;;;;;;;;;20.70;42.50;;;;;;5087491;28;19920;-63
2023/05/19 02:47:12;;;;;;;;;;;20.70;42.60;;;;;;5093497;28;19928;-63
2023/05/19 02:49:39;;;;;;;;;;;20.70;42.50;;;;;;5073386;28;20317;-63
2023/05/19 02:52:06;;;;;;;;;;;20.70;42.50;;;;;;5079807;28;19920;-62
2023/05/19 02:54:33;;;;;;;;;;;20.70;42.60;;;;;;5087937;28;20384;-60
2023/05/19 02:57:01;;;;;;;;;;;20.70;42.60;;;;;;5089955;28;19920;-61
2023/05/19 02:59:28;;;;;;;;;;;20.70;42.60;;;;;;5084330;28;19990;-62
2023/05/19 03:01:55;;;;;;;;;;;20.70;42.60;;;;;;5090841;28;19920;-63
2023/05/19 03:04:22;;;;;;;;;;;20.70;42.60;;;;;;5059877;28;19927;-63
2023/05/19 03:07:02;;;;;;;;;;;20.70;42.50;;;;;;5089235;28;19920;-63
2023/05/19 03:09:29;;;;;;;;;;;20.70;42.50;;;;;;5092336;28;20145;-63
2023/05/19 03:11:55;;;;;;;;;;;20.70;42.50;;;;;;5089903;28;19920;-62
2023/05/19 03:14:23;;;;;;;;;;;20.70;42.60;;;;;;5074446;28;20309;-63
2023/05/19 03:16:50;;;;;;;;;;;20.70;42.60;;;;;;5078855;28;19919;-63
2023/05/19 03:19:17;;;;;;;;;;;20.70;42.60;;;;;;5100911;28;19927;-63
2023/05/19 03:21:45;;;;;;;;;;;20.70;42.60;;;;;;5098500;28;20357;-62
2023/05/19 03:24:11;;;;;;;;;;;20.70;42.60;;;;;;5094586;28;19920;-62
2023/05/19 03:26:38;;;;;;;;;;;20.70;42.60;;;;;;5090369;28;19949;-61
2023/05/19 03:29:05;;;;;;;;;;;20.70;42.60;;;;;;5091454;28;19924;-62
2023/05/19 03:31:33;;;;;;;;;;;20.70;42.60;;;;;;5075516;28;19926;-62
2023/05/19 03:34:00;;;;;;;;;;;20.70;42.60;;;;;;5081462;28;19931;-62
2023/05/19 03:36:30;;;;;;;;;;;20.70;42.50;;;;;;5080597;28;19966;-62
2023/05/19 03:38:57;;;;;;;;;;;20.70;42.60;;;;;;5081521;28;20007;-62
2023/05/19 03:41:24;;;;;;;;;;;20.70;42.60;;;;;;5064348;28;19977;-62
2023/05/19 03:43:53;;;;;;;;;;;20.70;42.60;;;;;;5098453;28;19928;-62
2023/05/19 03:46:20;;;;;;;;;;;20.70;42.60;;;;;;5095430;28;19928;-62
2023/05/19 03:48:48;;;;;;;;;;;20.70;42.60;;;;;;5077349;28;19924;-62
2023/05/19 03:51:15;;;;;;;;;;;20.70;42.60;;;;;;5096452;28;19921;-62
2023/05/19 03:53:42;;;;;;;;;;;20.70;42.60;;;;;;5085424;28;20003;-62
2023/05/19 03:56:10;;;;;;;;;;;20.70;42.60;;;;;;5084615;28;19920;-62
2023/05/19 03:58:39;;;;;;;;;;;20.70;42.60;;;;;;5078637;28;19920;-62
2023/05/19 04:01:06;;;;;;;;;;;20.70;42.60;;;;;;5076651;28;20014;-62
2023/05/19 04:03:33;;;;;;;;;;;20.70;42.60;;;;;;5079234;28;19981;-62
2023/05/19 04:06:01;;;;;;;;;;;20.70;42.60;;;;;;5097699;28;19924;-62
2023/05/19 04:08:27;;;;;;;;;;;20.70;42.60;;;;;;5099388;28;19920;-62
2023/05/19 04:10:54;;;;;;;;;;;20.70;42.60;;;;;;5096345;28;19966;-62
2023/05/19 04:13:21;;;;;;;;;;;20.70;42.60;;;;;;5096549;28;19920;-62
2023/05/19 04:15:48;;;;;;;;;;;20.70;42.60;;;;;;5097323;28;20361;-62
2023/05/19 04:18:14;;;;;;;;;;;20.70;42.60;;;;;;5097451;28;20400;-62
2023/05/19 04:20:41;;;;;;;;;;;20.70;42.60;;;;;;5113358;28;19942;-63
2023/05/19 04:23:09;;;;;;;;;;;20.70;42.60;;;;;;5095746;28;19923;-62
2023/05/19 04:25:36;;;;;;;;;;;20.70;42.50;;;;;;5077929;28;19920;-62
2023/05/19 04:28:03;;;;;;;;;;;20.70;42.50;;;;;;5096404;28;19951;-62
2023/05/19 04:30:30;;;;;;;;;;;20.70;42.60;;;;;;5095188;28;19973;-61
2023/05/19 04:32:59;;;;;;;;;;;20.70;42.50;;;;;;5078387;28;20382;-62
2023/05/19 04:35:26;;;;;;;;;;;20.70;42.50;;;;;;5096513;28;20350;-62
2023/05/19 04:37:53;;;;;;;;;;;20.70;42.60;;;;;;5096866;28;19920;-62
2023/05/19 04:40:22;;;;;;;;;;;20.70;42.60;;;;;;5078494;28;19938;-62
2023/05/19 04:42:51;;;;;;;;;;;20.70;42.60;;;;;;5078251;28;19927;-62
2023/05/19 04:45:17;;;;;;;;;;;20.70;42.60;;;;;;5096490;28;19926;-62
2023/05/19 04:47:45;;;;;;;;;;;20.70;42.60;;;;;;5078383;28;19965;-62
2023/05/19 04:50:13;;;;;;;;;;;20.70;42.60;;;;;;5094722;28;19934;-62
2023/05/19 04:52:40;;;;;;;;;;;20.70;42.60;;;;;;5082973;28;19963;-62
2023/05/19 04:55:11;;;;;;;;;;;20.70;42.60;;;;;;5077090;28;19963;-62
2023/05/19 04:57:40;;;;;;;;;;;20.70;42.60;;;;;;5077019;28;19967;-62
2023/05/19 05:00:11;;;;;;;;;;;20.70;42.60;;;;;;5096433;28;19920;-62
2023/05/19 05:02:37;;;;;;;;;;;20.70;42.60;;;;;;5096268;28;19928;-62
2023/05/19 05:05:04;;;;;;;;;;;20.70;42.60;;;;;;5094948;28;20231;-62
2023/05/19 05:07:31;;;;;;;;;;;20.70;42.60;;;;;;5094757;28;19920;-62
2023/05/19 05:09:58;;;;;;;;;;;20.70;42.60;;;;;;5112671;28;19920;-62
2023/05/19 05:12:25;;;;;;;;;;;20.70;42.60;;;;;;5096156;28;20351;-62
2023/05/19 05:14:54;;;;;;;;;;;20.70;42.60;;;;;;5111869;28;19920;-62
2023/05/19 05:17:21;;;;;;;;;;;20.70;42.60;;;;;;5111787;28;20071;-62
2023/05/19 05:19:48;;;;;;;;;;;20.70;42.60;;;;;;5094769;28;19924;-62
2023/05/19 05:22:15;;;;;;;;;;;20.70;42.60;;;;;;5094514;28;20313;-61
2023/05/19 05:24:42;;;;;;;;;;;20.70;42.50;;;;;;5095485;28;19985;-62
2023/05/19 05:27:09;;;;;;;;;;;20.70;42.50;;;;;;5094599;28;19920;-62
2023/05/19 05:29:36;;;;;;;;;;;20.70;42.60;;;;;;5095911;28;20015;-62
2023/05/19 05:32:09;;;;;;;;;;;20.70;42.60;;;;;;5075824;28;20042;-62
2023/05/19 05:34:36;;;;;;;;;;;20.70;42.60;;;;;;5074789;28;19920;-62
2023/05/19 05:37:03;;;;;;;;;;;20.70;42.60;;;;;;5077359;28;19964;-62
2023/05/19 05:39:31;;;;;;;;;;;20.70;42.50;;;;;;5093876;28;19973;-62
2023/05/19 05:41:57;;;;;;;;;;;20.70;42.60;;;;;;5077011;28;20362;-62
2023/05/19 05:44:24;;;;;;;;;;;20.70;42.60;;;;;;5077357;28;19945;-62
2023/05/19 05:46:51;;;;;;;;;;;20.70;42.60;;;;;;5092587;28;19924;-62
2023/05/19 05:49:20;;;;;;;;;;;20.70;42.50;;;;;;5095117;28;19920;-62
2023/05/19 05:51:47;;;;;;;;;;;20.70;42.60;;;;;;5093709;28;19925;-62
2023/05/19 05:54:14;;;;;;;;;;;20.70;42.60;;;;;;5077720;28;19965;-62
2023/05/19 05:56:41;;;;;;;;;;;20.70;42.60;;;;;;5087353;28;19924;-62
2023/05/19 05:59:07;;;;;;;;;;;20.70;42.60;;;;;;5094187;28;19920;-62
2023/05/19 06:01:35;;;;;;;;;;;20.70;42.60;;;;;;5110862;28;19931;-62
2023/05/19 06:04:02;;;;;;;;;;;20.70;43.20;;;;;;5093875;28;19964;-62
2023/05/19 06:06:30;;;;;;;;;;;20.70;42.60;;;;;;5094850;28;19924;-62
2023/05/19 06:08:57;;;;;;;;;;;20.70;42.60;;;;;;5094278;28;20260;-62
2023/05/19 06:11:23;;;;;;;;;;;20.70;42.50;;;;;;5094665;28;19920;-62
2023/05/19 06:13:51;;;;;;;;;;;20.70;42.60;;;;;;5093586;28;19920;-62
2023/05/19 06:16:17;;;;;;;;;;;20.70;42.60;;;;;;5092345;28;19961;-62
2023/05/19 06:18:44;;;;;;;;;;;20.70;42.60;;;;;;5077421;28;19920;-62
2023/05/19 06:21:12;;;;;;;;;;;20.70;42.60;;;;;;5086540;28;19973;-62
2023/05/19 06:23:41;;;;;;;;;;;20.70;42.60;;;;;;5093477;28;20366;-62
2023/05/19 06:26:08;;;;;;;;;;;20.70;42.50;;;;;;5088975;28;19920;-62
2023/05/19 06:28:35;;;;;;;;;;;20.70;42.60;;;;;;5110866;28;19920;-62
2023/05/19 06:31:02;;;;;;;;;;;20.70;42.60;;;;;;5095161;28;19924;-62
2023/05/19 06:33:31;;;;;;;;;;;20.70;42.60;;;;;;5088209;28;19920;-62
2023/05/19 06:35:58;;;;;;;;;;;20.70;42.60;;;;;;5108154;28;19920;-62
2023/05/19 06:38:25;;;;;;;;;;;20.70;42.50;;;;;;5076527;28;19920;-62
2023/05/19 06:40:53;;;;;;;;;;;20.70;42.60;;;;;;5075735;28;19920;-62
2023/05/19 06:43:20;;;;;;;;;;;20.70;42.50;;;;;;5076543;28;19920;-62
2023/05/19 06:45:47;;;;;;;;;;;20.70;42.60;;;;;;5093212;28;19920;-62
2023/05/19 06:48:14;;;;;;;;;;;20.70;42.50;;;;;;5074086;28;19920;-62
2023/05/19 06:50:40;;;;;;;;;;;20.70;42.50;;;;;;5110007;28;19921;-63
2023/05/19 06:53:07;;;;;;;;;;;20.70;42.50;;;;;;5074025;28;19920;-62
2023/05/19 06:55:34;;;;;;;;;;;20.70;42.50;;;;;;5092470;28;19920;-63
2023/05/19 06:58:02;;;;;;;;;;;20.70;42.60;;;;;;5076089;28;20018;-62
2023/05/19 07:00:29;;;;;;;;;;;20.70;42.50;;;;;;5074490;28;19969;-61
2023/05/19 07:02:55;;;;;;;;;;;20.70;42.60;;;;;;5073385;28;19927;-62
2023/05/19 07:05:23;;;;;;;;;;;20.70;42.60;;;;;;5091901;28;19924;-62
2023/05/19 07:07:49;;;;;;;;;;;20.70;42.60;;;;;;5093685;28;19969;-62
2023/05/19 07:10:16;;;;;;;;;;;20.70;42.60;;;;;;5076359;28;20312;-62
2023/05/19 07:12:45;;;;;;;;;;;20.80;42.60;;;;;;5092937;28;20377;-63
2023/05/19 07:15:13;;;;;;;;;;;20.80;42.60;;;;;;5080512;28;19927;-62
2023/05/19 07:17:39;;;;;;;;;;;20.80;42.70;;;;;;5086527;28;19920;-62
2023/05/19 07:20:08;;;;;;;;;;;20.70;42.60;;;;;;5080228;28;19969;-63
2023/05/19 07:22:35;;;;;;;;;;;20.80;42.70;;;;;;5091483;28;20005;-62
2023/05/19 07:25:02;;;;;;;;;;;20.70;42.50;;;;;;5088902;28;19924;-63
2023/05/19 07:27:29;;;;;;;;;;;20.70;42.50;;;;;;5084265;28;19935;-61
2023/05/19 07:29:56;;;;;;;;;;;20.80;42.60;;;;;;5081936;28;19927;-63
2023/05/19 07:32:24;;;;;;;;;;;20.80;42.70;;;;;;5089354;28;19931;-63
2023/05/19 07:34:51;;;;;;;;;;;20.80;42.60;;;;;;5072418;28;19927;-63
2023/05/19 07:37:17;;;;;;;;;;;20.70;42.50;;;;;;5073647;28;19920;-62
2023/05/19 07:39:44;;;;;;;;;;;20.80;42.60;;;;;;5093889;28;19946;-62
2023/05/19 07:42:11;;;;;;;;;;;20.80;42.70;;;;;;5080400;28;20423;-63
2023/05/19 07:44:41;;;;;;;;;;;20.70;42.50;;;;;;5092038;28;19927;-61
2023/05/19 07:47:08;;;;;;;;;;;20.80;42.70;;;;;;5073981;28;20006;-63
2023/05/19 07:49:36;;;;;;;;;;;20.80;42.60;;;;;;5072431;28;19924;-62
2023/05/19 07:52:03;;;;;;;;;;;20.80;42.60;;;;;;5070792;28;19928;-62
2023/05/19 07:54:32;;;;;;;;;;;20.80;42.70;;;;;;5091414;28;19931;-62
2023/05/19 07:56:59;;;;;;;;;;;20.80;42.70;;;;;;5073897;28;19969;-63
2023/05/19 07:59:26;;;;;;;;;;;20.80;42.70;;;;;;5091198;28;19927;-63
2023/05/19 08:01:53;;;;;;;;;;;20.80;42.60;;;;;;5093703;28;19931;-63
2023/05/19 08:04:23;;;;;;;;;;;20.80;42.70;;;;;;5091690;28;19920;-63
2023/05/19 08:06:51;;;;;;;;;;;20.80;42.60;;;;;;5093773;28;19921;-63
2023/05/19 08:09:18;;;;;;;;;;;20.80;42.70;;;;;;5094655;28;19927;-63
2023/05/19 08:11:46;;;;;;;;;;;20.70;42.60;;;;;;5086144;28;19920;-63
2023/05/19 08:14:12;;;;;;;;;;;20.80;42.70;;;;;;5063089;28;19938;-62
2023/05/19 08:16:41;;;;;;;;;;;20.80;42.60;;;;;;5093696;28;19920;-63
2023/05/19 08:19:07;;;;;;;;;;;20.80;42.70;;;;;;5075490;28;19920;-63
2023/05/19 08:21:35;;;;;;;;;;;20.80;42.70;;;;;;5075990;28;20254;-63
2023/05/19 08:24:03;;;;;;;;;;;20.80;42.70;;;;;;5092039;28;19920;-63
2023/05/19 08:26:30;;;;;;;;;;;20.80;42.70;;;;;;5073808;28;19928;-62
2023/05/19 08:28:57;;;;;;;;;;;20.80;42.70;;;;;;5093167;28;19920;-63
2023/05/19 08:31:23;;;;;;;;;;;20.80;42.60;;;;;;5077154;28;20421;-62
2023/05/19 08:33:50;;;;;;;;;;;20.70;42.60;;;;;;5096884;28;19920;-63
2023/05/19 08:36:17;;;;;;;;;;;20.80;42.70;;;;;;5101589;28;19923;-62
2023/05/19 08:38:43;;;;;;;;;;;20.80;42.70;;;;;;5078728;28;19924;-63
2023/05/19 08:41:12;;;;;;;;;;;20.80;42.70;;;;;;5095768;28;19969;-62
2023/05/19 08:43:39;;;;;;;;;;;20.80;42.70;;;;;;5078662;28;19942;-63
2023/05/19 08:46:08;;;;;;;;;;;20.80;42.70;;;;;;5095447;28;20098;-62
2023/05/19 08:48:35;;;;;;;;;;;20.80;42.70;;;;;;5094812;28;19994;-63
2023/05/19 08:51:03;;;;;;;;;;;20.80;42.70;;;;;;5078322;28;19920;-62
2023/05/19 08:53:39;;;;;;;;;;;20.80;42.70;;;;;;5095977;28;19920;-63
2023/05/19 08:56:10;;;;;;;;;;;20.80;42.70;;;;;;5096928;28;20349;-62
2023/05/19 08:58:39;;;;;;;;;;;20.80;42.70;;;;;;5094463;28;19920;-63
2023/05/19 09:01:05;;;;;;;;;;;20.80;42.70;;;;;;5104929;28;19920;-62
2023/05/19 09:03:36;;;;;;;;;;;20.80;42.70;;;;;;5093741;28;19959;-62
2023/05/19 09:06:05;;;;;;;;;;;20.80;42.70;;;;;;5079126;28;20300;-62
2023/05/19 09:08:31;;;;;;;;;;;20.80;42.70;;;;;;5093554;28;19927;-62
2023/05/19 09:10:59;;;;;;;;;;;20.80;42.70;;;;;;5094753;28;19931;-63
2023/05/19 09:13:26;;;;;;;;;;;20.80;42.70;;;;;;5078407;28;19942;-63
2023/05/19 09:15:55;;;;;;;;;;;20.80;42.70;;;;;;5076500;28;19920;-62
2023/05/19 09:18:21;;;;;;;;;;;20.80;42.70;;;;;;5095067;28;19920;-63
2023/05/19 09:20:48;;;;;;;;;;;20.80;42.70;;;;;;5095962;28;20315;-63
2023/05/19 09:23:15;;;;;;;;;;;20.80;42.70;;;;;;5076052;28;20025;-62
2023/05/19 09:25:51;;;;;;;;;;;20.80;42.70;;;;;;5096013;28;19924;-63
2023/05/19 09:28:24;;;;;;;;;;;20.80;42.70;;;;;;5077627;28;19931;-63
2023/05/19 09:31:02;;;;;;;;;;;20.80;42.70;;;;;;5077720;28;19920;-62
2023/05/19 09:33:28;;;;;;;;;;;20.80;42.70;;;;;;5082245;28;19927;-62
2023/05/19 09:35:56;;;;;;;;;;;20.80;42.70;;;;;;5095534;28;19920;-63
2023/05/19 09:38:23;;;;;;;;;;;20.80;42.70;;;;;;5096086;28;20429;-63
2023/05/19 09:40:51;;;;;;;;;;;20.80;42.70;;;;;;5108520;28;19969;-62
2023/05/19 09:43:17;;;;;;;;;;;20.80;42.70;;;;;;5095431;28;19924;-62
2023/05/19 09:45:44;;;;;;;;;;;20.80;42.70;;;;;;5095204;28;19924;-63
2023/05/19 09:48:13;;;;;;;;;;;20.80;42.70;;;;;;5094304;28;19987;-63
2023/05/19 09:50:39;;;;;;;;;;;20.80;42.70;;;;;;5090992;28;19927;-63
2023/05/19 09:53:06;;;;;;;;;;;20.80;43.30;;;;;;5109312;28;20427;-61
2023/05/19 09:55:33;;;;;;;;;;;20.80;42.70;;;;;;5095472;28;19920;-63
2023/05/19 09:58:02;;;;;;;;;;;20.80;42.70;;;;;;5093805;28;19920;-63
2023/05/19 10:00:29;;;;;;;;;;;20.80;42.70;;;;;;5094692;28;19920;-62
2023/05/19 10:02:56;;;;;;;;;;;20.80;42.70;;;;;;5075459;28;19920;-62
2023/05/19 10:05:24;;;;;;;;;;;20.80;42.70;;;;;;5077390;28;19920;-62
2023/05/19 10:07:57;;;;;;;;;;;20.80;42.70;;;;;;5090172;28;19920;-62
2023/05/19 10:10:23;;;;;;;;;;;20.80;42.70;;;;;;5112273;28;19966;-63
2023/05/19 10:12:50;;;;;;;;;;;20.80;42.70;;;;;;5076613;28;19920;-62
2023/05/19 10:15:18;;;;;;;;;;;20.80;42.70;;;;;;5075127;28;19932;-63
2023/05/19 10:17:45;;;;;;;;;;;20.80;42.70;;;;;;5092737;28;19955;-63
2023/05/19 10:20:12;;;;;;;;;;;20.80;42.70;;;;;;5091524;28;19927;-61
2023/05/19 10:22:41;;;;;;;;;;;20.80;42.70;;;;;;5090344;28;19934;-63
2023/05/19 10:25:08;;;;;;;;;;;20.80;42.70;;;;;;5094160;28;19927;-63
2023/05/19 10:27:36;;;;;;;;;;;20.80;42.70;;;;;;5062748;28;19924;-60
2023/05/19 10:30:04;;;;;;;;;;;20.80;42.70;;;;;;5076590;28;20014;-62
2023/05/19 10:32:31;;;;;;;;;;;20.80;42.70;;;;;;5076481;28;19973;-62
2023/05/19 10:35:19;;;;;;;;;;;20.80;42.70;;;;;;5094652;28;19955;-62
2023/05/19 10:37:51;;;;;;;;;;;20.80;42.70;;;;;;5056078;28;19978;-62
2023/05/19 10:40:21;;;;;;;;;;;20.80;42.70;;;;;;5076603;28;19951;-62
2023/05/19 10:42:52;;;;;;;;;;;20.80;42.70;;;;;;5091202;28;19920;-61
2023/05/19 10:45:19;;;;;;;;;;;20.80;42.70;;;;;;5075892;28;19981;-62
2023/05/19 10:47:46;;;;;;;;;;;20.80;42.70;;;;;;5093728;28;19920;-62
2023/05/19 10:50:13;;;;;;;;;;;20.80;42.70;;;;;;5103099;28;19931;-61
2023/05/19 10:52:43;;;;;;;;;;;20.80;42.70;;;;;;5081147;28;19925;-62
2023/05/19 10:55:14;;;;;;;;;;;20.80;42.70;;;;;;5055972;28;19959;-61
2023/05/19 10:57:45;;;;;;;;;;;20.80;42.80;;;;;;5086118;28;19927;-62
2023/05/19 11:00:26;;;;;;;;;;;20.80;42.70;;;;;;5074375;28;19924;-61
2023/05/19 11:02:55;;;;;;;;;;;20.80;42.70;;;;;;5076476;28;20036;-62
2023/05/19 11:05:27;;;;;;;;;;;20.80;42.70;;;;;;5087877;28;19963;-62
2023/05/19 11:08:01;;;;;;;;;;;20.80;42.70;;;;;;5101298;28;20382;-61
2023/05/19 11:10:29;;;;;;;;;;;20.80;42.70;;;;;;5070942;28;19966;-62
2023/05/19 11:12:56;;;;;;;;;;;20.80;42.70;;;;;;5071325;28;19925;-61
2023/05/19 11:15:24;;;;;;;;;;;20.80;42.70;;;;;;5073170;28;19969;-61
2023/05/19 11:17:50;;;;;;;;;;;20.80;42.70;;;;;;5074113;28;19920;-61
2023/05/19 11:20:21;;;;;;;;;;;20.80;42.70;;;;;;5073578;28;19928;-61
2023/05/19 11:23:00;;;;;;;;;;;20.80;42.70;;;;;;5073280;28;19933;-61
2023/05/19 11:25:41;;;;;;;;;;;20.80;42.70;;;;;;5074990;28;19920;-61
2023/05/19 11:28:11;;;;;;;;;;;20.80;42.70;;;;;;5090856;28;19995;-61
2023/05/19 11:30:38;;;;;;;;;;;20.80;42.80;;;;;;5077692;28;19924;-61
2023/05/19 11:33:05;;;;;;;;;;;20.80;42.70;;;;;;5082045;28;19970;-61
2023/05/19 11:35:31;;;;;;;;;;;20.80;42.80;;;;;;5095464;28;19969;-61
2023/05/19 11:37:58;;;;;;;;;;;20.80;42.70;;;;;;5089799;28;19970;-61
2023/05/19 11:40:25;;;;;;;;;;;20.80;42.70;;;;;;5082017;28;19935;-61
2023/05/19 11:42:53;;;;;;;;;;;20.80;42.80;;;;;;5080258;28;20015;-61
2023/05/19 11:45:24;;;;;;;;;;;20.80;42.80;;;;;;5080838;28;19942;-61
2023/05/19 11:47:50;;;;;;;;;;;20.80;42.70;;;;;;5090046;28;19920;-61
2023/05/19 11:50:17;;;;;;;;;;;20.80;42.70;;;;;;5093729;28;19920;-61
2023/05/19 11:52:46;;;;;;;;;;;20.90;42.80;;;;;;5084322;28;19924;-61
2023/05/19 11:55:15;;;;;;;;;;;20.80;42.80;;;;;;5065481;28;19955;-61
2023/05/19 11:57:44;;;;;;;;;;;20.80;42.80;;;;;;5076904;28;19920;-62
2023/05/19 12:00:16;;;;;;;;;;;20.80;42.70;;;;;;5089959;28;19920;-61
2023/05/19 12:02:42;;;;;;;;;;;20.80;42.70;;;;;;5098162;28;19995;-62
2023/05/19 12:05:17;;;;;;;;;;;20.80;42.80;;;;;;5096744;28;19942;-62
2023/05/19 12:07:46;;;;;;;;;;;20.80;42.70;;;;;;5095453;28;19920;-62
2023/05/19 12:10:12;;;;;;;;;;;20.80;42.80;;;;;;5094732;28;19920;-62
2023/05/19 12:12:39;;;;;;;;;;;20.80;42.70;;;;;;5081983;28;19969;-63
2023/05/19 12:15:07;;;;;;;;;;;20.80;42.80;;;;;;5092682;28;19946;-61
2023/05/19 12:17:35;;;;;;;;;;;20.80;42.80;;;;;;5099916;28;19927;-63
2023/05/19 12:20:03;;;;;;;;;;;20.80;43.40;;;;;;5117765;28;19919;-63
2023/05/19 12:22:30;;;;;;;;;;;20.80;42.80;;;;;;5097142;28;19920;-62
2023/05/19 12:24:57;;;;;;;;;;;20.80;42.80;;;;;;5116699;28;19931;-63
2023/05/19 12:27:25;;;;;;;;;;;20.90;42.90;;;;;;5099326;28;19920;-63
2023/05/19 12:29:52;;;;;;;;;;;20.80;42.80;;;;;;5102445;28;19920;-63
2023/05/19 12:32:18;;;;;;;;;;;20.90;42.90;;;;;;5097494;28;19978;-63
2023/05/19 12:34:46;;;;;;;;;;;20.90;42.90;;;;;;5095255;28;19965;-63
2023/05/19 12:37:13;;;;;;;;;;;20.90;42.90;;;;;;5095800;28;19927;-63
2023/05/19 12:39:41;;;;;;;;;;;20.90;42.90;;;;;;5101566;28;19920;-63
2023/05/19 12:42:14;;;;;;;;;;;20.90;42.80;;;;;;5096848;28;19920;-63
2023/05/19 12:44:42;;;;;;;;;;;20.90;42.90;;;;;;5087619;28;19920;-63
2023/05/19 12:47:09;;;;;;;;;;;20.90;42.90;;;;;;5099435;28;19928;-62
2023/05/19 12:49:36;;;;;;;;;;;20.90;42.90;;;;;;5084237;28;19923;-62
2023/05/19 12:52:05;;;;;;;;;;;20.90;42.90;;;;;;5118540;28;19933;-61
2023/05/19 12:54:33;;;;;;;;;;;20.90;42.90;;;;;;5085179;28;19920;-62
2023/05/19 12:56:59;;;;;;;;;;;20.90;42.90;;;;;;5079535;28;20358;-62
2023/05/19 12:59:28;;;;;;;;;;;20.90;42.90;;;;;;5099369;28;20426;-63
2023/05/19 13:01:56;;;;;;;;;;;20.90;42.90;;;;;;5100518;28;19920;-63
2023/05/19 13:04:23;;;;;;;;;;;20.90;42.90;;;;;;5079820;28;19955;-62
2023/05/19 13:06:49;;;;;;;;;;;20.90;42.90;;;;;;5097991;28;19920;-61
2023/05/19 13:09:21;;;;;;;;;;;20.90;42.90;;;;;;5076511;28;19927;-61
2023/05/19 13:11:52;;;;;;;;;;;20.80;42.80;;;;;;5094671;28;19924;-62
2023/05/19 13:14:19;;;;;;;;;;;20.90;42.90;;;;;;5077861;28;19985;-63
2023/05/19 13:16:46;;;;;;;;;;;20.90;42.90;;;;;;5075923;28;19955;-63
2023/05/19 13:19:13;;;;;;;;;;;20.90;42.90;;;;;;5078296;28;19924;-62
2023/05/19 13:21:40;;;;;;;;;;;20.90;42.90;;;;;;5079094;28;19924;-63
2023/05/19 13:24:06;;;;;;;;;;;20.90;42.90;;;;;;5076352;28;19920;-64
2023/05/19 13:26:35;;;;;;;;;;;20.90;42.90;;;;;;5076990;28;19921;-64
2023/05/19 13:29:02;;;;;;;;;;;20.90;42.90;;;;;;5094757;28;20014;-62
2023/05/19 13:31:29;;;;;;;;;;;20.90;42.90;;;;;;5079603;28;20025;-63
2023/05/19 13:33:57;;;;;;;;;;;20.90;42.90;;;;;;5099194;28;20025;-63
2023/05/19 13:36:25;;;;;;;;;;;20.90;42.90;;;;;;5081647;28;19928;-63
2023/05/19 13:38:51;;;;;;;;;;;20.90;42.90;;;;;;5058160;28;19955;-63
2023/05/19 13:41:23;;;;;;;;;;;20.90;42.90;;;;;;5075750;28;19924;-63
2023/05/19 13:43:51;;;;;;;;;;;20.90;42.90;;;;;;5077615;28;19920;-63
2023/05/19 13:46:18;;;;;;;;;;;20.90;42.90;;;;;;5076590;28;19931;-63
2023/05/19 13:48:45;;;;;;;;;;;20.90;42.90;;;;;;5076558;28;19920;-63
2023/05/19 13:51:12;;;;;;;;;;;20.90;42.90;;;;;;5075243;28;19920;-63
2023/05/19 13:53:39;;;;;;;;;;;20.90;42.90;;;;;;5059308;28;19924;-63
2023/05/19 13:56:06;;;;;;;;;;;20.90;42.90;;;;;;5062764;28;20019;-64
2023/05/19 13:58:33;;;;;;;;;;;20.90;42.90;;;;;;5096527;28;19920;-63
2023/05/19 14:01:01;;;;;;;;;;;20.90;42.90;;;;;;5081140;28;19920;-62
2023/05/19 14:03:28;;;;;;;;;;;20.90;42.90;;;;;;5093640;28;19955;-63
2023/05/19 14:05:55;;;;;;;;;;;20.90;42.90;;;;;;5083063;28;19920;-62
2023/05/19 14:08:22;;;;;;;;;;;20.80;42.80;;;;;;5111967;28;19923;-63
2023/05/19 14:10:50;;;;;;;;;;;20.90;42.90;;;;;;5112733;28;19924;-63
2023/05/19 14:13:17;;;;;;;;;;;20.90;42.90;;;;;;5093286;28;19927;-63
2023/05/19 14:15:44;;;;;;;;;;;20.90;42.90;;;;;;5075109;28;20011;-63
2023/05/19 14:18:12;;;;;;;;;;;20.90;42.90;;;;;;5076941;28;19924;-63
2023/05/19 14:20:38;;;;;;;;;;;20.90;42.90;;;;;;5075100;28;19928;-62